createdAt,value
2022-10-22T00:00:42.904Z,96095.44
2022-10-22T00:03:10.043Z,96091.22
2022-10-22T00:05:37.235Z,96091.72
2022-10-22T00:08:04.406Z,96084.34
2022-10-22T00:10:31.626Z,96089.56
2022-10-22T00:13:00.102Z,96081.69
2022-10-22T00:15:27.153Z,96081.69
2022-10-22T00:17:54.148Z,96077.47
2022-10-22T00:20:21.366Z,96071.78
2022-10-22T00:22:48.772Z,96070.09
2022-10-22T00:25:16.308Z,96068.09
2022-10-22T00:27:44.455Z,96063.66
2022-10-22T00:30:12.199Z,96063.94
2022-10-22T00:32:39.586Z,96051.56
2022-10-22T00:35:07.325Z,96062.84
2022-10-22T00:37:34.697Z,96061.44
2022-10-22T00:40:01.890Z,96072.41
2022-10-22T00:42:30.645Z,96074.16
2022-10-22T00:45:04.673Z,96080.84
2022-10-22T00:47:35.585Z,96086.81
2022-10-22T00:50:06.337Z,96073.19
2022-10-22T00:52:34.187Z,96077.66
2022-10-22T00:55:01.714Z,96088.56
2022-10-22T00:57:29.965Z,96100.69
2022-10-22T00:59:58.224Z,96107.38
2022-10-22T01:02:25.507Z,96105.91
2022-10-22T01:04:52.903Z,96115.28
2022-10-22T01:07:22.374Z,96126.75
2022-10-22T01:10:13.382Z,96121.47
2022-10-22T01:13:01.636Z,96122.25
2022-10-22T01:15:49.710Z,96127.19
2022-10-22T01:18:25.257Z,96128.22
2022-10-22T01:20:58.256Z,96127.19
2022-10-22T01:24:06.647Z,96138.81
2022-10-22T01:26:58.617Z,96126.44
2022-10-22T01:29:33.293Z,96128.94
2022-10-22T01:32:08.666Z,96127.47
2022-10-22T01:34:39.076Z,96110.38
2022-10-22T01:37:08.675Z,96118.56
2022-10-22T01:39:40.136Z,96113.84
2022-10-22T01:42:07.314Z,96111.88
2022-10-22T01:44:37.449Z,96115.06
2022-10-22T01:47:48.246Z,96119.03
2022-10-22T01:50:54.658Z,96111.59
2022-10-22T01:53:30.686Z,96112.59
2022-10-22T01:56:03.687Z,96107.88
2022-10-22T01:58:59.623Z,96115.78
2022-10-22T02:01:59.323Z,96118.41
2022-10-22T02:04:32.606Z,96107.31
2022-10-22T02:07:05.084Z,96111.06
2022-10-22T02:09:34.143Z,96107.59
2022-10-22T02:14:40.045Z,96100.69
2022-10-22T02:17:11.540Z,96094.50
2022-10-22T02:19:57.754Z,96099.19
2022-10-22T02:22:26.489Z,96100.47
2022-10-22T02:24:53.805Z,96094.28
2022-10-22T02:27:27.478Z,96087.59
2022-10-22T02:30:07.018Z,96076.34
2022-10-22T02:32:42.394Z,96080.00
2022-10-22T02:35:14.074Z,96072.72
2022-10-22T02:37:42.030Z,96083.16
2022-10-22T02:40:10.103Z,96087.88
2022-10-22T02:42:41.211Z,96088.16
2022-10-22T02:45:09.304Z,96098.53
2022-10-22T02:47:36.445Z,96113.59
2022-10-22T02:50:06.537Z,96126.50
2022-10-22T02:52:36.586Z,96116.84
2022-10-22T02:55:07.892Z,96121.56
2022-10-22T02:57:35.394Z,96126.75
2022-10-22T03:00:02.635Z,96129.75
2022-10-22T03:02:29.703Z,96109.69
2022-10-22T03:04:56.736Z,96081.75
2022-10-22T03:07:23.764Z,96076.81
2022-10-22T03:09:50.751Z,96119.66
2022-10-22T03:12:17.867Z,96126.06
2022-10-22T03:14:44.856Z,96129.81
2022-10-22T03:17:12.013Z,96121.66
2022-10-22T03:19:39.117Z,96126.84
2022-10-22T03:22:11.916Z,96132.31
2022-10-22T03:24:44.535Z,96115.50
2022-10-22T03:27:15.298Z,96117.97
2022-10-22T03:29:43.106Z,96118.91
2022-10-22T03:32:10.412Z,96131.31
2022-10-22T03:34:37.542Z,96135.06
2022-10-22T03:37:04.719Z,96135.81
2022-10-22T03:39:34.977Z,96139.03
2022-10-22T03:42:02.947Z,96142.25
2022-10-22T03:44:30.817Z,96145.97
2022-10-22T03:47:00.266Z,96145.22
2022-10-22T03:49:29.726Z,96163.25
2022-10-22T03:51:57.237Z,96166.50
2022-10-22T03:54:24.532Z,96158.84
2022-10-22T03:56:51.525Z,96171.69
2022-10-22T03:59:18.772Z,96169.47
2022-10-22T04:01:45.786Z,96172.91
2022-10-22T04:04:13.242Z,96187.75
2022-10-22T04:06:40.205Z,96180.84
2022-10-22T04:09:07.319Z,96175.16
2022-10-22T04:11:34.398Z,96185.28
2022-10-22T04:14:04.539Z,96189.50
2022-10-22T04:16:32.929Z,96192.19
2022-10-22T04:19:00.194Z,96196.91
2022-10-22T04:21:27.205Z,96205.56
2022-10-22T04:23:54.879Z,96203.09
2022-10-22T04:26:22.059Z,96208.28
2022-10-22T04:28:52.001Z,96206.31
2022-10-22T04:31:21.701Z,96203.09
2022-10-22T04:33:56.241Z,96204.84
2022-10-22T04:36:24.612Z,96197.44
2022-10-22T04:39:01.824Z,96206.56
2022-10-22T04:41:37.250Z,96209.53
2022-10-22T04:44:06.576Z,96206.81
2022-10-22T04:46:35.361Z,96200.88
2022-10-22T04:49:04.215Z,96199.88
2022-10-22T04:51:31.218Z,96210.50
2022-10-22T04:53:58.437Z,96203.09
2022-10-22T04:56:30.687Z,96214.97
2022-10-22T04:59:01.411Z,96218.16
2022-10-22T05:01:40.153Z,96213.94
2022-10-22T05:04:15.503Z,96220.13
2022-10-22T05:06:44.852Z,96220.38
2022-10-22T05:09:17.680Z,96227.31
2022-10-22T05:11:49.180Z,96225.56
2022-10-22T05:14:25.362Z,96223.59
2022-10-22T05:16:53.766Z,96220.63
2022-10-22T05:19:24.687Z,96219.41
2022-10-22T05:21:57.539Z,96215.66
2022-10-22T05:24:25.745Z,96220.84
2022-10-22T05:26:54.629Z,96221.56
2022-10-22T05:29:22.101Z,96217.13
2022-10-22T05:31:49.345Z,96224.78
2022-10-22T05:34:18.047Z,96225.28
2022-10-22T05:36:45.711Z,96224.53
2022-10-22T05:39:13.623Z,96234.91
2022-10-22T05:41:40.966Z,96240.81
2022-10-22T05:44:08.153Z,96246.00
2022-10-22T05:46:36.372Z,96247.22
2022-10-22T05:49:06.178Z,96249.69
2022-10-22T05:51:35.282Z,96259.06
2022-10-22T05:54:04.571Z,96261.28
2022-10-22T05:56:32.370Z,96264.47
2022-10-22T05:59:00.253Z,96273.88
2022-10-22T06:01:32.696Z,96272.59
2022-10-22T06:04:01.940Z,96278.28
2022-10-22T06:06:35.555Z,96277.53
2022-10-22T06:09:08.019Z,96273.09
2022-10-22T06:11:35.477Z,96283.22
2022-10-22T06:14:03.657Z,96283.44
2022-10-22T06:16:32.351Z,96285.91
2022-10-22T06:19:03.134Z,96287.13
2022-10-22T06:21:31.842Z,96291.06
2022-10-22T06:24:00.837Z,96294.28
2022-10-22T06:26:28.688Z,96300.47
2022-10-22T06:28:57.650Z,96299.19
2022-10-22T06:31:26.628Z,96294.25
2022-10-22T06:33:54.085Z,96306.34
2022-10-22T06:36:23.528Z,96313.25
2022-10-22T06:38:53.048Z,96312.97
2022-10-22T06:41:22.955Z,96316.44
2022-10-22T06:43:54.253Z,96315.44
2022-10-22T06:46:23.005Z,96322.09
2022-10-22T06:48:52.414Z,96328.28
2022-10-22T06:51:21.374Z,96330.50
2022-10-22T06:53:49.738Z,96331.47
2022-10-22T06:56:20.204Z,96334.19
2022-10-22T06:58:52.960Z,96333.44
2022-10-22T07:01:23.588Z,96338.41
2022-10-22T07:03:53.161Z,96353.19
2022-10-22T07:06:21.886Z,96347.00
2022-10-22T07:08:49.437Z,96345.03
2022-10-22T07:11:19.454Z,96352.72
2022-10-22T07:13:47.882Z,96353.19
2022-10-22T07:16:16.863Z,96358.84
2022-10-22T07:18:45.015Z,96357.63
2022-10-22T07:21:13.822Z,96361.88
2022-10-22T07:23:41.134Z,96372.53
2022-10-22T07:26:14.785Z,96371.06
2022-10-22T07:28:42.665Z,96381.50
2022-10-22T07:31:11.908Z,96385.25
2022-10-22T07:33:39.472Z,96392.44
2022-10-22T07:36:13.075Z,96403.56
2022-10-22T07:38:40.186Z,96410.78
2022-10-22T07:41:07.303Z,96416.50
2022-10-22T07:43:34.717Z,96423.94
2022-10-22T07:46:03.036Z,96429.19
2022-10-22T07:48:30.181Z,96424.28
2022-10-22T07:50:58.493Z,96428.00
2022-10-22T07:53:25.960Z,96431.22
2022-10-22T07:55:53.516Z,96433.97
2022-10-22T07:58:22.254Z,96419.91
2022-10-22T08:00:51.583Z,96423.13
2022-10-22T08:03:18.963Z,96431.78
2022-10-22T08:05:46.425Z,96429.81
2022-10-22T08:08:15.475Z,96421.69
2022-10-22T08:10:44.053Z,96422.72
2022-10-22T08:13:11.885Z,96429.13
2022-10-22T08:15:39.261Z,96425.69
2022-10-22T08:18:06.805Z,96429.38
2022-10-22T08:20:33.951Z,96426.44
2022-10-22T08:23:01.359Z,96432.63
2022-10-22T08:25:30.601Z,96441.75
2022-10-22T08:27:59.127Z,96433.59
2022-10-22T08:30:27.951Z,96435.81
2022-10-22T08:32:55.127Z,96436.03
2022-10-22T08:35:23.195Z,96432.34
2022-10-22T08:37:50.458Z,96433.78
2022-10-22T08:40:33.934Z,96435.69
2022-10-22T08:43:42.277Z,96435.56
2022-10-22T08:46:46.520Z,96437.50
2022-10-22T08:49:21.040Z,96431.44
2022-10-22T08:51:48.796Z,96433.19
2022-10-22T08:54:33.654Z,96431.41
2022-10-22T08:57:09.770Z,96430.69
2022-10-22T09:00:03.435Z,96433.59
2022-10-22T09:02:47.477Z,96426.84
2022-10-22T09:05:29.852Z,96438.22
2022-10-22T09:07:57.822Z,96441.84
2022-10-22T09:10:30.710Z,96434.53
2022-10-22T09:12:58.311Z,96435.56
2022-10-22T09:15:25.696Z,96431.16
2022-10-22T09:18:37.584Z,96438.34
2022-10-22T09:21:24.233Z,96441.53
2022-10-22T09:24:27.489Z,96452.44
2022-10-22T09:26:57.872Z,96452.41
2022-10-22T09:29:32.795Z,96452.59
2022-10-22T09:32:00.012Z,96456.81
2022-10-22T09:34:29.261Z,96468.81
2022-10-22T09:37:04.827Z,96468.66
2022-10-22T09:39:40.247Z,96465.63
2022-10-22T09:42:08.789Z,96459.22
2022-10-22T09:44:37.600Z,96467.22
2022-10-22T09:47:37.353Z,96469.16
2022-10-22T09:50:21.820Z,96461.38
2022-10-22T09:53:21.531Z,96456.59
2022-10-22T09:58:28.712Z,96463.19
2022-10-22T10:01:01.200Z,96469.72
2022-10-22T10:03:33.244Z,96463.75
2022-10-22T10:06:05.994Z,96468.28
2022-10-22T10:08:33.730Z,96471.34
2022-10-22T10:11:17.271Z,96474.44
2022-10-22T10:13:54.415Z,96478.91
2022-10-22T10:16:47.415Z,96483.63
2022-10-22T10:19:32.769Z,96482.88
2022-10-22T10:22:14.485Z,96478.44
2022-10-22T10:25:00.305Z,96473.94
2022-10-22T10:27:36.537Z,96470.19
2022-10-22T10:30:21.538Z,96465.66
2022-10-22T10:32:58.018Z,96470.31
2022-10-22T10:35:55.391Z,96456.94
2022-10-22T10:38:52.786Z,96469.41
2022-10-22T10:41:37.742Z,96469.22
2022-10-22T10:44:35.808Z,96460.69
2022-10-22T10:47:39.153Z,96461.44
2022-10-22T10:50:18.427Z,96462.97
2022-10-22T10:53:14.506Z,96463.44
2022-10-22T10:56:07.154Z,96470.53
2022-10-22T10:59:07.763Z,96469.28
2022-10-22T11:01:43.436Z,96467.56
2022-10-22T11:04:27.043Z,96475.16
2022-10-22T11:07:10.770Z,96466.06
2022-10-22T11:09:59.731Z,96458.25
2022-10-22T11:12:36.890Z,96459.97
2022-10-22T11:15:25.738Z,96465.81
2022-10-22T11:18:00.026Z,96458.94
2022-10-22T11:20:54.024Z,96459.22
2022-10-22T11:23:44.351Z,96460.63
2022-10-22T11:26:22.693Z,96459.69
2022-10-22T11:28:54.322Z,96463.81
2022-10-22T11:31:25.686Z,96453.91
2022-10-22T11:34:33.082Z,96452.47
2022-10-22T11:37:01.614Z,96449.22
2022-10-22T11:39:45.641Z,96442.81
2022-10-22T11:42:20.660Z,96438.16
2022-10-22T11:44:59.088Z,96434.34
2022-10-22T11:47:29.110Z,96443.31
2022-10-22T11:50:18.137Z,96436.16
2022-10-22T11:53:08.624Z,96438.50
2022-10-22T11:55:55.579Z,96430.72
2022-10-22T11:58:30.795Z,96433.16
2022-10-22T12:01:10.045Z,96435.19
2022-10-22T12:03:44.097Z,96437.97
2022-10-22T12:06:12.253Z,96432.88
2022-10-22T12:08:51.728Z,96433.41
2022-10-22T12:11:40.185Z,96434.03
2022-10-22T12:14:29.746Z,96435.19
2022-10-22T12:17:06.263Z,96434.97
2022-10-22T12:19:41.362Z,96434.56
2022-10-22T12:22:19.756Z,96426.53
2022-10-22T12:24:55.147Z,96424.97
2022-10-22T12:27:24.224Z,96436.75
2022-10-22T12:29:56.908Z,96449.75
2022-10-22T12:32:29.466Z,96433.00
2022-10-22T12:34:56.754Z,96434.75
2022-10-22T12:37:24.029Z,96426.50
2022-10-22T12:39:51.616Z,96421.53
2022-10-22T12:42:18.969Z,96430.63
2022-10-22T12:44:47.699Z,96427.06
2022-10-22T12:47:19.163Z,96442.16
2022-10-22T12:49:49.404Z,96436.66
2022-10-22T12:52:22.889Z,96433.41
2022-10-22T12:54:55.793Z,96438.88
2022-10-22T12:57:27.925Z,96431.59
2022-10-22T13:02:32.664Z,96428.13
2022-10-22T13:05:23.737Z,96436.91
2022-10-22T13:08:17.468Z,96423.47
2022-10-22T13:10:53.848Z,96432.03
2022-10-22T13:13:32.778Z,96431.38
2022-10-22T13:16:24.376Z,96422.53
2022-10-22T13:18:53.118Z,96425.50
2022-10-22T13:21:39.211Z,96431.06
2022-10-22T13:24:24.225Z,96438.34
2022-10-22T13:26:54.496Z,96429.38
2022-10-22T13:29:23.797Z,96436.75
2022-10-22T13:31:53.611Z,96430.88
2022-10-22T13:34:24.391Z,96426.56
2022-10-22T13:36:52.076Z,96425.66
2022-10-22T13:39:21.375Z,96405.75
2022-10-22T13:41:52.721Z,96417.66
2022-10-22T13:44:20.304Z,96409.19
2022-10-22T13:46:51.787Z,96419.00
2022-10-22T13:49:23.621Z,96403.59
2022-10-22T13:51:53.998Z,96408.69
2022-10-22T13:54:24.501Z,96405.13
2022-10-22T13:56:52.965Z,96408.78
2022-10-22T13:59:22.909Z,96405.06
2022-10-22T14:01:52.076Z,96415.50
2022-10-22T14:04:23.565Z,96415.06
2022-10-22T14:06:50.833Z,96418.09
2022-10-22T14:09:18.957Z,96422.00
2022-10-22T14:11:46.579Z,96418.00
2022-10-22T14:14:17.406Z,96426.13
2022-10-22T14:16:44.901Z,96424.84
2022-10-22T14:19:16.918Z,96422.19
2022-10-22T14:21:44.305Z,96426.53
2022-10-22T14:24:13.222Z,96417.38
2022-10-22T14:26:41.784Z,96412.31
2022-10-22T14:29:10.301Z,96422.91
2022-10-22T14:34:15.125Z,96422.19
2022-10-22T14:36:44.265Z,96430.97
2022-10-22T14:39:12.955Z,96433.28
2022-10-22T14:41:41.471Z,96422.09
2022-10-22T14:44:14.469Z,96428.94
2022-10-22T14:46:44.378Z,96427.66
2022-10-22T14:49:12.404Z,96416.13
2022-10-22T14:51:40.035Z,96434.66
2022-10-22T14:54:07.713Z,96421.34
2022-10-22T14:56:34.958Z,96428.75
2022-10-22T14:59:02.181Z,96436.66
2022-10-22T15:01:29.698Z,96425.66
2022-10-22T15:03:56.902Z,96420.06
2022-10-22T15:06:24.346Z,96423.91
2022-10-22T15:08:51.646Z,96421.47
2022-10-22T15:11:18.949Z,96429.84
2022-10-22T15:13:46.634Z,96431.94
2022-10-22T15:16:15.969Z,96435.53
2022-10-22T15:18:43.251Z,96426.34
2022-10-22T15:21:19.724Z,96426.03
2022-10-22T15:23:47.293Z,96433.00
2022-10-22T15:26:14.839Z,96435.53
2022-10-22T15:28:43.002Z,96441.84
2022-10-22T15:31:14.316Z,96439.84
2022-10-22T15:33:44.417Z,96441.41
2022-10-22T15:36:14.923Z,96444.47
2022-10-22T15:38:42.464Z,96442.97
2022-10-22T15:41:12.715Z,96436.19
2022-10-22T15:43:39.990Z,96430.47
2022-10-22T15:46:14.641Z,96422.31
2022-10-22T15:48:42.575Z,96425.44
2022-10-22T15:51:12.205Z,96425.03
2022-10-22T15:53:39.544Z,96425.84
2022-10-22T15:56:06.924Z,96430.44
2022-10-22T15:58:34.545Z,96436.50
2022-10-22T16:01:06.767Z,96435.09
2022-10-22T16:03:34.563Z,96438.25
2022-10-22T16:06:01.845Z,96431.72
2022-10-22T16:08:29.212Z,96439.25
2022-10-22T16:10:56.639Z,96435.97
2022-10-22T16:13:25.382Z,96439.06
2022-10-22T16:15:53.356Z,96436.16
2022-10-22T16:18:21.678Z,96439.47
2022-10-22T16:20:48.796Z,96437.09
2022-10-22T16:23:19.133Z,96435.91
2022-10-22T16:25:47.003Z,96437.69
2022-10-22T16:28:14.691Z,96438.78
2022-10-22T16:30:42.287Z,96431.31
2022-10-22T16:33:11.500Z,96431.13
2022-10-22T16:35:43.037Z,96428.63
2022-10-22T16:38:11.535Z,96449.63
2022-10-22T16:40:39.206Z,96437.50
2022-10-22T16:43:06.845Z,96453.94
2022-10-22T16:45:34.185Z,96457.47
2022-10-22T16:48:01.895Z,96465.44
2022-10-22T16:50:29.420Z,96464.75
2022-10-22T16:52:57.065Z,96467.31
2022-10-22T16:55:24.453Z,96472.81
2022-10-22T16:57:53.633Z,96486.59
2022-10-22T17:00:21.437Z,96481.69
2022-10-22T17:02:55.195Z,96474.47
2022-10-22T17:05:22.506Z,96473.09
2022-10-22T17:07:50.615Z,96483.53
2022-10-22T17:12:54.440Z,96497.00
2022-10-22T17:15:21.600Z,96499.50
2022-10-22T17:17:52.765Z,96487.38
2022-10-22T17:20:20.400Z,96488.38
2022-10-22T17:22:49.690Z,96490.63
2022-10-22T17:25:24.276Z,96498.63
2022-10-22T17:27:54.141Z,96501.59
2022-10-22T17:30:24.944Z,96512.06
2022-10-22T17:32:57.611Z,96514.34
2022-10-22T17:35:24.859Z,96521.31
2022-10-22T17:37:52.132Z,96524.06
2022-10-22T17:40:21.874Z,96521.44
2022-10-22T17:42:49.766Z,96521.28
2022-10-22T17:45:17.026Z,96519.34
2022-10-22T17:47:44.258Z,96520.13
2022-10-22T17:50:11.779Z,96520.88
2022-10-22T17:52:39.349Z,96525.84
2022-10-22T17:55:07.572Z,96522.63
2022-10-22T17:57:34.925Z,96517.22
2022-10-22T18:00:02.332Z,96523.69
2022-10-22T18:02:32.815Z,96530.88
2022-10-22T18:05:01.176Z,96534.63
2022-10-22T18:07:28.369Z,96527.94
2022-10-22T18:09:55.610Z,96527.69
2022-10-22T18:12:22.937Z,96528.44
2022-10-22T18:14:50.457Z,96523.13
2022-10-22T18:17:17.875Z,96524.69
2022-10-22T18:19:45.354Z,96522.75
2022-10-22T18:22:15.435Z,96518.78
2022-10-22T18:24:43.278Z,96518.56
2022-10-22T18:27:10.797Z,96518.06
2022-10-22T18:29:38.472Z,96517.09
2022-10-22T18:32:12.132Z,96516.09
2022-10-22T18:34:40.521Z,96513.66
2022-10-22T18:37:07.815Z,96523.81
2022-10-22T18:39:35.706Z,96526.06
2022-10-22T18:42:06.430Z,96521.59
2022-10-22T18:44:35.300Z,96518.13
2022-10-22T18:47:02.623Z,96516.41
2022-10-22T18:49:30.652Z,96514.91
2022-10-22T18:52:00.763Z,96509.38
2022-10-22T18:54:27.933Z,96502.91
2022-10-22T18:56:59.459Z,96509.69
2022-10-22T18:59:29.276Z,96509.94
2022-10-22T19:01:59.665Z,96511.19
2022-10-22T19:04:37.145Z,96510.44
2022-10-22T19:07:06.161Z,96509.94
2022-10-22T19:09:33.551Z,96513.66
2022-10-22T19:12:01.870Z,96506.97
2022-10-22T19:14:29.244Z,96511.94
2022-10-22T19:16:56.559Z,96512.16
2022-10-22T19:19:24.620Z,96511.19
2022-10-22T19:21:51.910Z,96507.47
2022-10-22T19:24:20.711Z,96516.16
2022-10-22T19:26:49.576Z,96514.44
2022-10-22T19:29:19.370Z,96497.00
2022-10-22T19:31:47.764Z,96492.53
2022-10-22T19:34:15.104Z,96492.59
2022-10-22T19:36:42.375Z,96501.53
2022-10-22T19:39:09.750Z,96504.00
2022-10-22T19:41:38.224Z,96504.00
2022-10-22T19:44:08.216Z,96515.19
2022-10-22T19:46:35.566Z,96499.06
2022-10-22T19:49:04.099Z,96503.03
2022-10-22T19:51:33.983Z,96497.31
2022-10-22T19:54:07.049Z,96496.06
2022-10-22T19:56:36.055Z,96492.59
2022-10-22T19:59:04.451Z,96492.31
2022-10-22T20:01:32.277Z,96488.38
2022-10-22T20:04:00.375Z,96488.16
2022-10-22T20:06:27.865Z,96486.81
2022-10-22T20:08:56.228Z,96486.31
2022-10-22T20:11:27.587Z,96486.38
2022-10-22T20:13:56.793Z,96486.41
2022-10-22T20:16:27.345Z,96492.34
2022-10-22T20:18:54.665Z,96498.53
2022-10-22T20:21:22.409Z,96494.31
2022-10-22T20:23:53.326Z,96493.84
2022-10-22T20:26:23.601Z,96494.84
2022-10-22T20:28:52.428Z,96498.56
2022-10-22T20:31:22.010Z,96491.13
2022-10-22T20:33:50.912Z,96486.16
2022-10-22T20:36:22.596Z,96485.66
2022-10-22T20:38:51.100Z,96488.41
2022-10-22T20:41:23.315Z,96492.63
2022-10-22T20:43:51.687Z,96492.56
2022-10-22T20:46:27.672Z,96495.06
2022-10-22T20:48:58.768Z,96493.34
2022-10-22T20:51:26.143Z,96492.38
2022-10-22T20:53:53.417Z,96494.63
2022-10-22T20:56:23.913Z,96488.41
2022-10-22T20:58:54.194Z,96488.41
2022-10-22T21:01:24.266Z,96488.19
2022-10-22T21:03:53.475Z,96483.22
2022-10-22T21:06:23.366Z,96481.25
2022-10-22T21:08:51.987Z,96481.25
2022-10-22T21:11:20.824Z,96474.06
2022-10-22T21:13:51.383Z,96484.97
2022-10-22T21:16:19.913Z,96483.72
2022-10-22T21:18:47.811Z,96478.28
2022-10-22T21:21:17.284Z,96481.94
2022-10-22T21:23:44.588Z,96475.50
2022-10-22T21:26:12.808Z,96479.25
2022-10-22T21:28:40.008Z,96479.50
2022-10-22T21:31:10.996Z,96475.31
2022-10-22T21:33:40.165Z,96482.47
2022-10-22T21:36:09.255Z,96478.03
2022-10-22T21:38:37.826Z,96482.00
2022-10-22T21:41:14.124Z,96483.50
2022-10-22T21:43:42.618Z,96474.56
2022-10-22T21:46:13.330Z,96484.25
2022-10-22T21:48:43.176Z,96483.22
2022-10-22T21:51:15.187Z,96484.22
2022-10-22T21:53:43.050Z,96481.25
2022-10-22T21:56:22.376Z,96480.97
2022-10-22T21:58:49.795Z,96476.47
2022-10-22T22:01:17.990Z,96479.75
2022-10-22T22:03:48.374Z,96477.75
2022-10-22T22:06:21.111Z,96477.78
2022-10-22T22:08:49.949Z,96469.34
2022-10-22T22:11:20.307Z,96473.84
2022-10-22T22:13:48.952Z,96470.84
2022-10-22T22:16:27.099Z,96470.84
2022-10-22T22:19:02.166Z,96468.88
2022-10-22T22:21:30.121Z,96467.16
2022-10-22T22:23:58.472Z,96464.66
2022-10-22T22:26:29.814Z,96464.19
2022-10-22T22:28:59.721Z,96457.50
2022-10-22T22:31:30.083Z,96463.97
2022-10-22T22:34:12.938Z,96456.28
2022-10-22T22:36:48.149Z,96460.03
2022-10-22T22:39:18.308Z,96448.22
2022-10-22T22:41:49.162Z,96443.13
2022-10-22T22:44:16.565Z,96447.63
2022-10-22T22:46:45.075Z,96446.91
2022-10-22T22:49:13.640Z,96440.44
2022-10-22T22:51:40.895Z,96446.91
2022-10-22T22:54:08.197Z,96440.97
2022-10-22T22:56:36.271Z,96450.13
2022-10-22T22:59:12.786Z,96453.59
2022-10-22T23:01:40.277Z,96451.16
2022-10-22T23:04:16.396Z,96449.44
2022-10-22T23:06:43.674Z,96448.91
2022-10-22T23:09:13.511Z,96457.09
2022-10-22T23:11:42.824Z,96450.66
2022-10-22T23:14:13.932Z,96459.81
2022-10-22T23:16:45.672Z,96454.34
2022-10-22T23:19:18.569Z,96457.09
2022-10-22T23:21:51.636Z,96449.59
2022-10-22T23:24:22.858Z,96439.69
2022-10-22T23:26:52.455Z,96442.22
2022-10-22T23:29:28.037Z,96439.75
2022-10-22T23:31:59.720Z,96450.13
2022-10-22T23:34:28.122Z,96455.09
2022-10-22T23:36:56.185Z,96454.88
2022-10-22T23:39:26.684Z,96449.66
2022-10-22T23:41:54.784Z,96442.22
2022-10-22T23:44:23.258Z,96437.03
2022-10-22T23:46:51.208Z,96442.97
2022-10-22T23:49:18.804Z,96440.75
2022-10-22T23:51:46.145Z,96442.72
2022-10-22T23:54:15.532Z,96438.78
2022-10-22T23:56:43.152Z,96414.78
2022-10-22T23:59:11.503Z,96417.00
